sensor_id;sensor_type;location;lat;lon;timestamp;P1;P2;P0
60816;PMS5003;51921;51.518;-3.188;2023-06-22T00:01:05;14;12;
60816;PMS5003;51921;51.518;-3.188;2023-06-22T00:03:30;15;14;
60816;PMS5003;51921;51.518;-3.188;2023-06-22T00:05:56;12;12;
60816;PMS5003;51921;51.518;-3.188;2023-06-22T00:08:21;12;12;
60816;PMS5003;51921;51.518;-3.188;2023-06-22T00:10:46;15;13;
60816;PMS5003;51921;51.518;-3.188;2023-06-22T00:13:12;16;14;
60816;PMS5003;51921;51.518;-3.188;2023-06-22T00:15:37;12;12;
60816;PMS5003;51921;51.518;-3.188;2023-06-22T00:18:03;13;12;
60816;PMS5003;51921;51.518;-3.188;2023-06-22T00:20:28;12;11;
60816;PMS5003;51921;51.518;-3.188;2023-06-22T00:22:53;13;13;
60816;PMS5003;51921;51.518;-3.188;2023-06-22T00:25:19;13;13;
60816;PMS5003;51921;51.518;-3.188;2023-06-22T00:27:44;11;11;
60816;PMS5003;51921;51.518;-3.188;2023-06-22T00:30:10;12;12;
60816;PMS5003;51921;51.518;-3.188;2023-06-22T00:32:35;11;11;
60816;PMS5003;51921;51.518;-3.188;2023-06-22T00:35:00;14;13;
60816;PMS5003;51921;51.518;-3.188;2023-06-22T00:37:25;10;10;
60816;PMS5003;51921;51.518;-3.188;2023-06-22T00:39:51;13;11;
60816;PMS5003;51921;51.518;-3.188;2023-06-22T00:42:16;10;9;
60816;PMS5003;51921;51.518;-3.188;2023-06-22T00:44:42;11;10;
60816;PMS5003;51921;51.518;-3.188;2023-06-22T00:47:07;11;11;
60816;PMS5003;51921;51.518;-3.188;2023-06-22T00:49:33;12;12;
60816;PMS5003;51921;51.518;-3.188;2023-06-22T00:51:58;14;14;
60816;PMS5003;51921;51.518;-3.188;2023-06-22T00:54:23;12;12;
60816;PMS5003;51921;51.518;-3.188;2023-06-22T00:56:48;11;11;
60816;PMS5003;51921;51.518;-3.188;2023-06-22T00:59:14;14;14;
60816;PMS5003;51921;51.518;-3.188;2023-06-22T01:01:39;14;13;
60816;PMS5003;51921;51.518;-3.188;2023-06-22T01:04:04;15;13;
60816;PMS5003;51921;51.518;-3.188;2023-06-22T01:06:32;11;11;
60816;PMS5003;51921;51.518;-3.188;2023-06-22T01:08:57;11;11;
60816;PMS5003;51921;51.518;-3.188;2023-06-22T01:11:22;13;13;
60816;PMS5003;51921;51.518;-3.188;2023-06-22T01:13:49;13;12;
60816;PMS5003;51921;51.518;-3.188;2023-06-22T01:16:12;13;13;
60816;PMS5003;51921;51.518;-3.188;2023-06-22T01:18:37;10;10;
60816;PMS5003;51921;51.518;-3.188;2023-06-22T01:21:03;12;12;
60816;PMS5003;51921;51.518;-3.188;2023-06-22T01:23:29;13;13;
60816;PMS5003;51921;51.518;-3.188;2023-06-22T01:25:56;16;14;
60816;PMS5003;51921;51.518;-3.188;2023-06-22T01:28:24;15;14;
60816;PMS5003;51921;51.518;-3.188;2023-06-22T01:30:43;17;16;
60816;PMS5003;51921;51.518;-3.188;2023-06-22T01:33:09;14;14;
60816;PMS5003;51921;51.518;-3.188;2023-06-22T01:35:34;11;11;
60816;PMS5003;51921;51.518;-3.188;2023-06-22T01:37:59;16;15;
60816;PMS5003;51921;51.518;-3.188;2023-06-22T01:40:25;16;16;
60816;PMS5003;51921;51.518;-3.188;2023-06-22T01:42:50;13;13;
60816;PMS5003;51921;51.518;-3.188;2023-06-22T01:45:15;13;13;
60816;PMS5003;51921;51.518;-3.188;2023-06-22T01:47:40;12;12;
60816;PMS5003;51921;51.518;-3.188;2023-06-22T01:50:06;12;12;
60816;PMS5003;51921;51.518;-3.188;2023-06-22T01:52:31;15;14;
60816;PMS5003;51921;51.518;-3.188;2023-06-22T01:54:56;14;12;
60816;PMS5003;51921;51.518;-3.188;2023-06-22T01:57:22;13;13;
60816;PMS5003;51921;51.518;-3.188;2023-06-22T01:59:50;12;12;
60816;PMS5003;51921;51.518;-3.188;2023-06-22T02:02:13;12;11;
60816;PMS5003;51921;51.518;-3.188;2023-06-22T02:04:40;15;14;
60816;PMS5003;51921;51.518;-3.188;2023-06-22T02:07:05;12;12;
60816;PMS5003;51921;51.518;-3.188;2023-06-22T02:09:29;12;11;
60816;PMS5003;51921;51.518;-3.188;2023-06-22T02:11:54;13;12;
60816;PMS5003;51921;51.518;-3.188;2023-06-22T02:14:19;15;13;
60816;PMS5003;51921;51.518;-3.188;2023-06-22T02:16:44;14;14;
60816;PMS5003;51921;51.518;-3.188;2023-06-22T02:19:10;13;13;
60816;PMS5003;51921;51.518;-3.188;2023-06-22T02:21:36;10;10;
60816;PMS5003;51921;51.518;-3.188;2023-06-22T02:24:01;13;13;
60816;PMS5003;51921;51.518;-3.188;2023-06-22T02:26:26;14;14;
60816;PMS5003;51921;51.518;-3.188;2023-06-22T02:28:52;14;13;
60816;PMS5003;51921;51.518;-3.188;2023-06-22T02:31:17;12;11;
60816;PMS5003;51921;51.518;-3.188;2023-06-22T02:33:42;16;15;
60816;PMS5003;51921;51.518;-3.188;2023-06-22T02:36:08;14;11;
60816;PMS5003;51921;51.518;-3.188;2023-06-22T02:38:33;13;13;
60816;PMS5003;51921;51.518;-3.188;2023-06-22T02:40:58;9;9;
60816;PMS5003;51921;51.518;-3.188;2023-06-22T02:43:24;11;10;
60816;PMS5003;51921;51.518;-3.188;2023-06-22T02:45:49;13;11;
60816;PMS5003;51921;51.518;-3.188;2023-06-22T02:48:14;12;8;
60816;PMS5003;51921;51.518;-3.188;2023-06-22T02:50:40;12;10;
60816;PMS5003;51921;51.518;-3.188;2023-06-22T02:53:05;13;13;
60816;PMS5003;51921;51.518;-3.188;2023-06-22T02:55:30;11;11;
60816;PMS5003;51921;51.518;-3.188;2023-06-22T02:57:56;10;10;
60816;PMS5003;51921;51.518;-3.188;2023-06-22T03:00:21;11;10;
60816;PMS5003;51921;51.518;-3.188;2023-06-22T03:02:47;11;9;
60816;PMS5003;51921;51.518;-3.188;2023-06-22T03:05:12;14;13;
60816;PMS5003;51921;51.518;-3.188;2023-06-22T03:07:37;11;11;
60816;PMS5003;51921;51.518;-3.188;2023-06-22T03:10:03;11;10;
60816;PMS5003;51921;51.518;-3.188;2023-06-22T03:12:28;10;9;
60816;PMS5003;51921;51.518;-3.188;2023-06-22T03:14:53;10;9;
60816;PMS5003;51921;51.518;-3.188;2023-06-22T03:17:19;9;9;
60816;PMS5003;51921;51.518;-3.188;2023-06-22T03:19:44;10;10;
60816;PMS5003;51921;51.518;-3.188;2023-06-22T03:22:10;10;10;
60816;PMS5003;51921;51.518;-3.188;2023-06-22T03:24:35;13;13;
60816;PMS5003;51921;51.518;-3.188;2023-06-22T03:27:01;13;12;
60816;PMS5003;51921;51.518;-3.188;2023-06-22T03:29:26;9;9;
60816;PMS5003;51921;51.518;-3.188;2023-06-22T03:31:51;10;10;
60816;PMS5003;51921;51.518;-3.188;2023-06-22T03:34:17;10;10;
60816;PMS5003;51921;51.518;-3.188;2023-06-22T03:36:42;10;10;
60816;PMS5003;51921;51.518;-3.188;2023-06-22T03:39:08;13;13;
60816;PMS5003;51921;51.518;-3.188;2023-06-22T03:41:33;12;11;
60816;PMS5003;51921;51.518;-3.188;2023-06-22T03:43:59;12;10;
60816;PMS5003;51921;51.518;-3.188;2023-06-22T03:46:24;11;11;
60816;PMS5003;51921;51.518;-3.188;2023-06-22T03:48:49;14;12;
60816;PMS5003;51921;51.518;-3.188;2023-06-22T03:51:15;13;12;
60816;PMS5003;51921;51.518;-3.188;2023-06-22T03:53:40;13;13;
60816;PMS5003;51921;51.518;-3.188;2023-06-22T03:56:06;8;8;
60816;PMS5003;51921;51.518;-3.188;2023-06-22T03:58:31;9;9;
60816;PMS5003;51921;51.518;-3.188;2023-06-22T04:00:57;12;12;
60816;PMS5003;51921;51.518;-3.188;2023-06-22T04:03:22;10;10;
60816;PMS5003;51921;51.518;-3.188;2023-06-22T04:05:47;11;10;
60816;PMS5003;51921;51.518;-3.188;2023-06-22T04:08:13;12;12;
60816;PMS5003;51921;51.518;-3.188;2023-06-22T04:10:38;10;10;
60816;PMS5003;51921;51.518;-3.188;2023-06-22T04:13:04;11;11;
60816;PMS5003;51921;51.518;-3.188;2023-06-22T04:15:29;10;9;
60816;PMS5003;51921;51.518;-3.188;2023-06-22T04:17:55;10;10;
60816;PMS5003;51921;51.518;-3.188;2023-06-22T04:20:20;11;10;
60816;PMS5003;51921;51.518;-3.188;2023-06-22T04:22:45;9;8;
60816;PMS5003;51921;51.518;-3.188;2023-06-22T04:25:11;10;10;
60816;PMS5003;51921;51.518;-3.188;2023-06-22T04:27:36;11;10;
60816;PMS5003;51921;51.518;-3.188;2023-06-22T04:30:01;11;10;
60816;PMS5003;51921;51.518;-3.188;2023-06-22T04:32:27;9;9;
60816;PMS5003;51921;51.518;-3.188;2023-06-22T04:34:52;8;8;
60816;PMS5003;51921;51.518;-3.188;2023-06-22T04:37:17;9;9;
60816;PMS5003;51921;51.518;-3.188;2023-06-22T04:39:43;9;9;
60816;PMS5003;51921;51.518;-3.188;2023-06-22T04:42:08;10;10;
60816;PMS5003;51921;51.518;-3.188;2023-06-22T04:44:34;11;11;
60816;PMS5003;51921;51.518;-3.188;2023-06-22T04:47:00;10;9;
60816;PMS5003;51921;51.518;-3.188;2023-06-22T04:49:25;10;9;
60816;PMS5003;51921;51.518;-3.188;2023-06-22T04:51:49;11;10;
60816;PMS5003;51921;51.518;-3.188;2023-06-22T04:54:15;7;7;
60816;PMS5003;51921;51.518;-3.188;2023-06-22T04:56:40;10;10;
60816;PMS5003;51921;51.518;-3.188;2023-06-22T04:59:06;11;11;
60816;PMS5003;51921;51.518;-3.188;2023-06-22T05:01:31;10;10;
60816;PMS5003;51921;51.518;-3.188;2023-06-22T05:03:56;11;11;
60816;PMS5003;51921;51.518;-3.188;2023-06-22T05:06:22;8;8;
60816;PMS5003;51921;51.518;-3.188;2023-06-22T05:08:47;10;10;
60816;PMS5003;51921;51.518;-3.188;2023-06-22T05:11:13;9;9;
60816;PMS5003;51921;51.518;-3.188;2023-06-22T05:13:38;10;9;
60816;PMS5003;51921;51.518;-3.188;2023-06-22T05:16:04;9;9;
60816;PMS5003;51921;51.518;-3.188;2023-06-22T05:18:29;9;8;
60816;PMS5003;51921;51.518;-3.188;2023-06-22T05:20:54;10;9;
60816;PMS5003;51921;51.518;-3.188;2023-06-22T05:23:20;7;7;
60816;PMS5003;51921;51.518;-3.188;2023-06-22T05:25:45;10;10;
60816;PMS5003;51921;51.518;-3.188;2023-06-22T05:28:10;9;7;
60816;PMS5003;51921;51.518;-3.188;2023-06-22T05:30:36;13;12;
60816;PMS5003;51921;51.518;-3.188;2023-06-22T05:33:01;11;10;
60816;PMS5003;51921;51.518;-3.188;2023-06-22T05:35:26;10;10;
60816;PMS5003;51921;51.518;-3.188;2023-06-22T05:37:52;11;10;
60816;PMS5003;51921;51.518;-3.188;2023-06-22T05:40:17;8;8;
60816;PMS5003;51921;51.518;-3.188;2023-06-22T05:42:42;10;10;
60816;PMS5003;51921;51.518;-3.188;2023-06-22T05:45:08;9;9;
60816;PMS5003;51921;51.518;-3.188;2023-06-22T05:47:33;11;11;
60816;PMS5003;51921;51.518;-3.188;2023-06-22T05:49:58;10;9;
60816;PMS5003;51921;51.518;-3.188;2023-06-22T05:52:23;10;10;
60816;PMS5003;51921;51.518;-3.188;2023-06-22T05:54:49;8;7;
60816;PMS5003;51921;51.518;-3.188;2023-06-22T05:57:14;11;10;
60816;PMS5003;51921;51.518;-3.188;2023-06-22T05:59:40;7;7;
60816;PMS5003;51921;51.518;-3.188;2023-06-22T06:02:05;8;8;
60816;PMS5003;51921;51.518;-3.188;2023-06-22T06:04:30;10;10;
60816;PMS5003;51921;51.518;-3.188;2023-06-22T06:06:55;7;7;
60816;PMS5003;51921;51.518;-3.188;2023-06-22T06:09:21;7;7;
60816;PMS5003;51921;51.518;-3.188;2023-06-22T06:11:46;9;8;
60816;PMS5003;51921;51.518;-3.188;2023-06-22T06:14:12;8;8;
60816;PMS5003;51921;51.518;-3.188;2023-06-22T06:16:37;7;7;
60816;PMS5003;51921;51.518;-3.188;2023-06-22T06:19:02;7;7;
60816;PMS5003;51921;51.518;-3.188;2023-06-22T06:21:28;8;8;
60816;PMS5003;51921;51.518;-3.188;2023-06-22T06:23:53;8;8;
60816;PMS5003;51921;51.518;-3.188;2023-06-22T06:26:18;9;8;
60816;PMS5003;51921;51.518;-3.188;2023-06-22T06:28:44;7;7;
60816;PMS5003;51921;51.518;-3.188;2023-06-22T06:31:09;6;6;
60816;PMS5003;51921;51.518;-3.188;2023-06-22T06:33:34;9;9;
60816;PMS5003;51921;51.518;-3.188;2023-06-22T06:36:00;8;8;
60816;PMS5003;51921;51.518;-3.188;2023-06-22T06:38:25;9;7;
60816;PMS5003;51921;51.518;-3.188;2023-06-22T06:40:50;9;8;
60816;PMS5003;51921;51.518;-3.188;2023-06-22T06:43:15;7;7;
60816;PMS5003;51921;51.518;-3.188;2023-06-22T06:45:41;6;6;
60816;PMS5003;51921;51.518;-3.188;2023-06-22T06:48:07;7;7;
60816;PMS5003;51921;51.518;-3.188;2023-06-22T06:50:32;7;7;
60816;PMS5003;51921;51.518;-3.188;2023-06-22T06:52:57;7;7;
60816;PMS5003;51921;51.518;-3.188;2023-06-22T06:55:23;7;7;
60816;PMS5003;51921;51.518;-3.188;2023-06-22T06:57:48;5;5;
60816;PMS5003;51921;51.518;-3.188;2023-06-22T07:00:14;8;7;
60816;PMS5003;51921;51.518;-3.188;2023-06-22T07:02:39;5;5;
60816;PMS5003;51921;51.518;-3.188;2023-06-22T07:05:04;6;6;
60816;PMS5003;51921;51.518;-3.188;2023-06-22T07:07:29;7;7;
60816;PMS5003;51921;51.518;-3.188;2023-06-22T07:09:55;8;7;
60816;PMS5003;51921;51.518;-3.188;2023-06-22T07:12:20;8;8;
60816;PMS5003;51921;51.518;-3.188;2023-06-22T07:14:45;7;7;
60816;PMS5003;51921;51.518;-3.188;2023-06-22T07:17:11;6;6;
60816;PMS5003;51921;51.518;-3.188;2023-06-22T07:19:41;7;7;
60816;PMS5003;51921;51.518;-3.188;2023-06-22T07:22:02;9;7;
60816;PMS5003;51921;51.518;-3.188;2023-06-22T07:24:27;9;9;
60816;PMS5003;51921;51.518;-3.188;2023-06-22T07:26:52;10;9;
60816;PMS5003;51921;51.518;-3.188;2023-06-22T07:29:18;9;9;
60816;PMS5003;51921;51.518;-3.188;2023-06-22T07:31:44;8;8;
60816;PMS5003;51921;51.518;-3.188;2023-06-22T07:34:08;8;8;
60816;PMS5003;51921;51.518;-3.188;2023-06-22T07:36:34;6;5;
60816;PMS5003;51921;51.518;-3.188;2023-06-22T07:38:59;6;6;
60816;PMS5003;51921;51.518;-3.188;2023-06-22T07:41:25;6;6;
60816;PMS5003;51921;51.518;-3.188;2023-06-22T07:43:50;7;7;
60816;PMS5003;51921;51.518;-3.188;2023-06-22T07:46:15;7;7;
60816;PMS5003;51921;51.518;-3.188;2023-06-22T07:48:41;9;8;
60816;PMS5003;51921;51.518;-3.188;2023-06-22T07:51:06;9;9;
60816;PMS5003;51921;51.518;-3.188;2023-06-22T07:53:31;8;6;
60816;PMS5003;51921;51.518;-3.188;2023-06-22T07:55:57;6;6;
60816;PMS5003;51921;51.518;-3.188;2023-06-22T07:58:22;6;6;
60816;PMS5003;51921;51.518;-3.188;2023-06-22T08:00:47;8;8;
60816;PMS5003;51921;51.518;-3.188;2023-06-22T08:03:12;6;6;
60816;PMS5003;51921;51.518;-3.188;2023-06-22T08:05:38;4;4;
60816;PMS5003;51921;51.518;-3.188;2023-06-22T08:08:03;6;6;
60816;PMS5003;51921;51.518;-3.188;2023-06-22T08:10:28;4;4;
60816;PMS5003;51921;51.518;-3.188;2023-06-22T08:12:54;7;6;
60816;PMS5003;51921;51.518;-3.188;2023-06-22T08:15:19;7;7;
60816;PMS5003;51921;51.518;-3.188;2023-06-22T08:17:44;8;8;
60816;PMS5003;51921;51.518;-3.188;2023-06-22T08:20:10;8;7;
60816;PMS5003;51921;51.518;-3.188;2023-06-22T08:22:35;9;7;
60816;PMS5003;51921;51.518;-3.188;2023-06-22T08:25:00;8;8;
60816;PMS5003;51921;51.518;-3.188;2023-06-22T08:27:25;6;6;
60816;PMS5003;51921;51.518;-3.188;2023-06-22T08:29:50;12;11;
60816;PMS5003;51921;51.518;-3.188;2023-06-22T08:32:16;9;8;
60816;PMS5003;51921;51.518;-3.188;2023-06-22T08:34:41;10;9;
60816;PMS5003;51921;51.518;-3.188;2023-06-22T08:37:06;9;8;
60816;PMS5003;51921;51.518;-3.188;2023-06-22T08:39:31;8;8;
60816;PMS5003;51921;51.518;-3.188;2023-06-22T08:41:57;9;8;
60816;PMS5003;51921;51.518;-3.188;2023-06-22T08:44:22;7;7;
60816;PMS5003;51921;51.518;-3.188;2023-06-22T08:46:47;8;8;
60816;PMS5003;51921;51.518;-3.188;2023-06-22T08:49:12;7;7;
60816;PMS5003;51921;51.518;-3.188;2023-06-22T08:51:38;7;7;
60816;PMS5003;51921;51.518;-3.188;2023-06-22T08:54:03;7;7;
60816;PMS5003;51921;51.518;-3.188;2023-06-22T08:56:28;9;8;
60816;PMS5003;51921;51.518;-3.188;2023-06-22T08:58:53;7;7;
60816;PMS5003;51921;51.518;-3.188;2023-06-22T09:01:19;7;7;
60816;PMS5003;51921;51.518;-3.188;2023-06-22T09:03:44;8;8;
60816;PMS5003;51921;51.518;-3.188;2023-06-22T09:06:09;6;5;
60816;PMS5003;51921;51.518;-3.188;2023-06-22T09:08:34;9;9;
60816;PMS5003;51921;51.518;-3.188;2023-06-22T09:11:00;8;7;
60816;PMS5003;51921;51.518;-3.188;2023-06-22T09:13:25;8;8;
60816;PMS5003;51921;51.518;-3.188;2023-06-22T09:15:50;9;8;
60816;PMS5003;51921;51.518;-3.188;2023-06-22T09:18:15;8;8;
60816;PMS5003;51921;51.518;-3.188;2023-06-22T09:20:41;7;7;
60816;PMS5003;51921;51.518;-3.188;2023-06-22T09:23:06;9;9;
60816;PMS5003;51921;51.518;-3.188;2023-06-22T09:25:31;8;8;
60816;PMS5003;51921;51.518;-3.188;2023-06-22T09:27:56;6;6;
60816;PMS5003;51921;51.518;-3.188;2023-06-22T09:30:22;7;7;
60816;PMS5003;51921;51.518;-3.188;2023-06-22T09:32:47;6;6;
60816;PMS5003;51921;51.518;-3.188;2023-06-22T09:35:12;5;5;
60816;PMS5003;51921;51.518;-3.188;2023-06-22T09:37:37;8;7;
60816;PMS5003;51921;51.518;-3.188;2023-06-22T09:40:03;7;7;
60816;PMS5003;51921;51.518;-3.188;2023-06-22T09:42:28;7;7;
60816;PMS5003;51921;51.518;-3.188;2023-06-22T09:44:53;6;5;
60816;PMS5003;51921;51.518;-3.188;2023-06-22T09:47:18;6;6;
60816;PMS5003;51921;51.518;-3.188;2023-06-22T09:49:44;9;9;
60816;PMS5003;51921;51.518;-3.188;2023-06-22T09:52:09;6;6;
60816;PMS5003;51921;51.518;-3.188;2023-06-22T09:54:34;7;7;
60816;PMS5003;51921;51.518;-3.188;2023-06-22T09:56:59;6;6;
60816;PMS5003;51921;51.518;-3.188;2023-06-22T09:59:25;7;7;
60816;PMS5003;51921;51.518;-3.188;2023-06-22T10:01:50;8;8;
60816;PMS5003;51921;51.518;-3.188;2023-06-22T10:04:15;6;6;
60816;PMS5003;51921;51.518;-3.188;2023-06-22T10:06:40;6;5;
60816;PMS5003;51921;51.518;-3.188;2023-06-22T10:09:06;7;7;
60816;PMS5003;51921;51.518;-3.188;2023-06-22T10:11:31;6;6;
60816;PMS5003;51921;51.518;-3.188;2023-06-22T10:13:56;4;4;
60816;PMS5003;51921;51.518;-3.188;2023-06-22T10:16:23;3;3;
60816;PMS5003;51921;51.518;-3.188;2023-06-22T10:18:47;5;5;
60816;PMS5003;51921;51.518;-3.188;2023-06-22T10:21:12;5;4;
60816;PMS5003;51921;51.518;-3.188;2023-06-22T10:23:38;6;5;
60816;PMS5003;51921;51.518;-3.188;2023-06-22T10:26:03;6;5;
60816;PMS5003;51921;51.518;-3.188;2023-06-22T10:28:28;7;7;
60816;PMS5003;51921;51.518;-3.188;2023-06-22T10:30:53;6;6;
60816;PMS5003;51921;51.518;-3.188;2023-06-22T10:33:19;7;6;
60816;PMS5003;51921;51.518;-3.188;2023-06-22T10:35:44;6;6;
60816;PMS5003;51921;51.518;-3.188;2023-06-22T10:38:09;4;4;
60816;PMS5003;51921;51.518;-3.188;2023-06-22T10:40:35;5;5;
60816;PMS5003;51921;51.518;-3.188;2023-06-22T10:43:00;5;5;
60816;PMS5003;51921;51.518;-3.188;2023-06-22T10:45:25;4;4;
60816;PMS5003;51921;51.518;-3.188;2023-06-22T10:47:50;7;6;
60816;PMS5003;51921;51.518;-3.188;2023-06-22T10:50:16;3;3;
60816;PMS5003;51921;51.518;-3.188;2023-06-22T10:52:41;4;4;
60816;PMS5003;51921;51.518;-3.188;2023-06-22T10:55:07;6;5;
60816;PMS5003;51921;51.518;-3.188;2023-06-22T10:57:32;6;6;
60816;PMS5003;51921;51.518;-3.188;2023-06-22T10:59:57;8;8;
60816;PMS5003;51921;51.518;-3.188;2023-06-22T11:02:23;7;7;
60816;PMS5003;51921;51.518;-3.188;2023-06-22T11:04:47;6;6;
60816;PMS5003;51921;51.518;-3.188;2023-06-22T11:07:13;10;8;
60816;PMS5003;51921;51.518;-3.188;2023-06-22T11:09:38;7;7;
60816;PMS5003;51921;51.518;-3.188;2023-06-22T11:12:04;8;8;
60816;PMS5003;51921;51.518;-3.188;2023-06-22T11:14:29;8;8;
60816;PMS5003;51921;51.518;-3.188;2023-06-22T11:16:54;9;9;
60816;PMS5003;51921;51.518;-3.188;2023-06-22T11:19:19;8;8;
60816;PMS5003;51921;51.518;-3.188;2023-06-22T11:21:44;8;8;
60816;PMS5003;51921;51.518;-3.188;2023-06-22T11:24:10;8;8;
60816;PMS5003;51921;51.518;-3.188;2023-06-22T11:26:35;7;7;
60816;PMS5003;51921;51.518;-3.188;2023-06-22T11:29:01;10;9;
60816;PMS5003;51921;51.518;-3.188;2023-06-22T11:31:26;9;9;
60816;PMS5003;51921;51.518;-3.188;2023-06-22T11:33:52;9;9;
60816;PMS5003;51921;51.518;-3.188;2023-06-22T11:36:17;9;9;
60816;PMS5003;51921;51.518;-3.188;2023-06-22T11:38:42;9;9;
60816;PMS5003;51921;51.518;-3.188;2023-06-22T11:41:07;9;9;
60816;PMS5003;51921;51.518;-3.188;2023-06-22T11:43:33;9;9;
60816;PMS5003;51921;51.518;-3.188;2023-06-22T11:45:59;11;10;
60816;PMS5003;51921;51.518;-3.188;2023-06-22T11:48:24;9;8;
60816;PMS5003;51921;51.518;-3.188;2023-06-22T11:50:50;7;7;
60816;PMS5003;51921;51.518;-3.188;2023-06-22T11:53:15;7;7;
60816;PMS5003;51921;51.518;-3.188;2023-06-22T11:55:40;8;8;
60816;PMS5003;51921;51.518;-3.188;2023-06-22T11:58:05;8;7;
60816;PMS5003;51921;51.518;-3.188;2023-06-22T12:00:31;9;9;
60816;PMS5003;51921;51.518;-3.188;2023-06-22T12:02:56;9;8;
60816;PMS5003;51921;51.518;-3.188;2023-06-22T12:05:22;8;8;
60816;PMS5003;51921;51.518;-3.188;2023-06-22T12:07:47;9;9;
60816;PMS5003;51921;51.518;-3.188;2023-06-22T12:10:12;7;7;
60816;PMS5003;51921;51.518;-3.188;2023-06-22T12:12:37;8;8;
60816;PMS5003;51921;51.518;-3.188;2023-06-22T12:15:03;8;8;
60816;PMS5003;51921;51.518;-3.188;2023-06-22T12:17:28;7;6;
60816;PMS5003;51921;51.518;-3.188;2023-06-22T12:19:53;6;6;
60816;PMS5003;51921;51.518;-3.188;2023-06-22T12:22:18;8;8;
60816;PMS5003;51921;51.518;-3.188;2023-06-22T12:24:44;6;6;
60816;PMS5003;51921;51.518;-3.188;2023-06-22T12:27:09;9;9;
60816;PMS5003;51921;51.518;-3.188;2023-06-22T12:29:34;9;8;
60816;PMS5003;51921;51.518;-3.188;2023-06-22T12:32:00;7;7;
60816;PMS5003;51921;51.518;-3.188;2023-06-22T12:34:25;7;7;
60816;PMS5003;51921;51.518;-3.188;2023-06-22T12:36:50;8;8;
60816;PMS5003;51921;51.518;-3.188;2023-06-22T12:39:15;9;8;
60816;PMS5003;51921;51.518;-3.188;2023-06-22T12:41:41;6;5;
60816;PMS5003;51921;51.518;-3.188;2023-06-22T12:44:06;8;8;
60816;PMS5003;51921;51.518;-3.188;2023-06-22T12:46:31;7;6;
60816;PMS5003;51921;51.518;-3.188;2023-06-22T12:48:57;7;7;
60816;PMS5003;51921;51.518;-3.188;2023-06-22T12:51:22;7;7;
60816;PMS5003;51921;51.518;-3.188;2023-06-22T12:53:47;9;8;
60816;PMS5003;51921;51.518;-3.188;2023-06-22T12:56:12;7;6;
60816;PMS5003;51921;51.518;-3.188;2023-06-22T12:58:38;7;7;
60816;PMS5003;51921;51.518;-3.188;2023-06-22T13:01:03;6;6;
60816;PMS5003;51921;51.518;-3.188;2023-06-22T13:03:28;5;5;
60816;PMS5003;51921;51.518;-3.188;2023-06-22T13:05:54;6;6;
60816;PMS5003;51921;51.518;-3.188;2023-06-22T13:08:19;7;7;
60816;PMS5003;51921;51.518;-3.188;2023-06-22T13:10:44;6;6;
60816;PMS5003;51921;51.518;-3.188;2023-06-22T13:13:10;5;5;
60816;PMS5003;51921;51.518;-3.188;2023-06-22T13:15:35;6;6;
60816;PMS5003;51921;51.518;-3.188;2023-06-22T13:18:00;5;5;
60816;PMS5003;51921;51.518;-3.188;2023-06-22T13:20:25;4;4;
60816;PMS5003;51921;51.518;-3.188;2023-06-22T13:22:51;5;5;
60816;PMS5003;51921;51.518;-3.188;2023-06-22T13:25:17;6;6;
60816;PMS5003;51921;51.518;-3.188;2023-06-22T13:27:41;5;5;
60816;PMS5003;51921;51.518;-3.188;2023-06-22T13:30:07;7;7;
60816;PMS5003;51921;51.518;-3.188;2023-06-22T13:32:32;4;4;
60816;PMS5003;51921;51.518;-3.188;2023-06-22T13:34:58;6;6;
60816;PMS5003;51921;51.518;-3.188;2023-06-22T13:37:23;6;6;
60816;PMS5003;51921;51.518;-3.188;2023-06-22T13:39:48;5;5;
60816;PMS5003;51921;51.518;-3.188;2023-06-22T13:42:14;3;3;
60816;PMS5003;51921;51.518;-3.188;2023-06-22T13:44:39;6;6;
60816;PMS5003;51921;51.518;-3.188;2023-06-22T13:47:05;5;5;
60816;PMS5003;51921;51.518;-3.188;2023-06-22T13:49:30;5;5;
60816;PMS5003;51921;51.518;-3.188;2023-06-22T13:51:55;5;5;
60816;PMS5003;51921;51.518;-3.188;2023-06-22T13:54:20;7;7;
60816;PMS5003;51921;51.518;-3.188;2023-06-22T13:56:45;5;5;
60816;PMS5003;51921;51.518;-3.188;2023-06-22T13:59:11;5;5;
60816;PMS5003;51921;51.518;-3.188;2023-06-22T14:01:36;6;6;
60816;PMS5003;51921;51.518;-3.188;2023-06-22T14:04:01;6;6;
60816;PMS5003;51921;51.518;-3.188;2023-06-22T14:06:27;4;4;
60816;PMS5003;51921;51.518;-3.188;2023-06-22T14:08:52;5;5;
60816;PMS5003;51921;51.518;-3.188;2023-06-22T14:11:17;4;4;
60816;PMS5003;51921;51.518;-3.188;2023-06-22T14:13:43;6;5;
60816;PMS5003;51921;51.518;-3.188;2023-06-22T14:16:08;7;6;
60816;PMS5003;51921;51.518;-3.188;2023-06-22T14:18:33;4;4;
60816;PMS5003;51921;51.518;-3.188;2023-06-22T14:20:58;5;5;
60816;PMS5003;51921;51.518;-3.188;2023-06-22T14:23:24;7;7;
60816;PMS5003;51921;51.518;-3.188;2023-06-22T14:25:49;6;5;
60816;PMS5003;51921;51.518;-3.188;2023-06-22T14:28:14;6;6;
60816;PMS5003;51921;51.518;-3.188;2023-06-22T14:30:40;6;6;
60816;PMS5003;51921;51.518;-3.188;2023-06-22T14:33:05;5;5;
60816;PMS5003;51921;51.518;-3.188;2023-06-22T14:35:30;5;5;
60816;PMS5003;51921;51.518;-3.188;2023-06-22T14:37:56;5;5;
60816;PMS5003;51921;51.518;-3.188;2023-06-22T14:40:21;5;5;
60816;PMS5003;51921;51.518;-3.188;2023-06-22T14:42:46;4;3;
60816;PMS5003;51921;51.518;-3.188;2023-06-22T14:45:12;4;4;
60816;PMS5003;51921;51.518;-3.188;2023-06-22T14:47:37;5;4;
60816;PMS5003;51921;51.518;-3.188;2023-06-22T14:50:02;4;4;
60816;PMS5003;51921;51.518;-3.188;2023-06-22T14:52:27;6;6;
60816;PMS5003;51921;51.518;-3.188;2023-06-22T14:54:53;5;4;
60816;PMS5003;51921;51.518;-3.188;2023-06-22T14:57:18;4;4;
60816;PMS5003;51921;51.518;-3.188;2023-06-22T14:59:43;6;6;
60816;PMS5003;51921;51.518;-3.188;2023-06-22T15:02:09;5;5;
60816;PMS5003;51921;51.518;-3.188;2023-06-22T15:04:34;5;5;
60816;PMS5003;51921;51.518;-3.188;2023-06-22T15:06:59;6;5;
60816;PMS5003;51921;51.518;-3.188;2023-06-22T15:09:25;5;5;
60816;PMS5003;51921;51.518;-3.188;2023-06-22T15:11:50;3;3;
60816;PMS5003;51921;51.518;-3.188;2023-06-22T15:14:15;5;5;
60816;PMS5003;51921;51.518;-3.188;2023-06-22T15:16:40;5;5;
60816;PMS5003;51921;51.518;-3.188;2023-06-22T15:19:06;6;5;
60816;PMS5003;51921;51.518;-3.188;2023-06-22T15:21:31;5;5;
60816;PMS5003;51921;51.518;-3.188;2023-06-22T15:23:56;6;6;
60816;PMS5003;51921;51.518;-3.188;2023-06-22T15:26:22;5;4;
60816;PMS5003;51921;51.518;-3.188;2023-06-22T15:28:47;6;6;
60816;PMS5003;51921;51.518;-3.188;2023-06-22T15:31:12;7;6;
60816;PMS5003;51921;51.518;-3.188;2023-06-22T15:33:38;5;5;
60816;PMS5003;51921;51.518;-3.188;2023-06-22T15:36:03;5;4;
60816;PMS5003;51921;51.518;-3.188;2023-06-22T15:38:28;7;6;
60816;PMS5003;51921;51.518;-3.188;2023-06-22T15:40:54;5;5;
60816;PMS5003;51921;51.518;-3.188;2023-06-22T15:43:19;5;5;
60816;PMS5003;51921;51.518;-3.188;2023-06-22T15:45:45;9;7;
60816;PMS5003;51921;51.518;-3.188;2023-06-22T15:48:10;7;7;
60816;PMS5003;51921;51.518;-3.188;2023-06-22T15:50:35;5;5;
60816;PMS5003;51921;51.518;-3.188;2023-06-22T15:53:01;7;7;
60816;PMS5003;51921;51.518;-3.188;2023-06-22T15:55:26;7;7;
60816;PMS5003;51921;51.518;-3.188;2023-06-22T15:57:51;6;5;
60816;PMS5003;51921;51.518;-3.188;2023-06-22T16:00:17;7;6;
60816;PMS5003;51921;51.518;-3.188;2023-06-22T16:02:43;6;6;
60816;PMS5003;51921;51.518;-3.188;2023-06-22T16:05:08;5;5;
60816;PMS5003;51921;51.518;-3.188;2023-06-22T16:07:33;7;7;
60816;PMS5003;51921;51.518;-3.188;2023-06-22T16:09:58;7;7;